createdAt,value
2018-04-27T00:04:09.157Z,6.60
2018-04-27T00:08:43.202Z,6.50
2018-04-27T00:13:16.416Z,6.60
2018-04-27T00:17:49.643Z,6.60
2018-04-27T00:22:22.835Z,6.60
2018-04-27T00:26:56.059Z,6.60
2018-04-27T00:31:30.116Z,6.60
2018-04-27T00:36:04.191Z,6.50
2018-04-27T00:40:38.112Z,6.40
2018-04-27T00:45:11.407Z,6.40
2018-04-27T00:49:44.636Z,6.50
2018-04-27T00:54:17.850Z,6.50
2018-04-27T00:58:51.124Z,6.40
2018-04-27T01:03:24.348Z,6.40
2018-04-27T01:07:57.542Z,6.10
2018-04-27T01:12:30.815Z,6.00
2018-04-27T01:17:04.859Z,5.70
2018-04-27T01:21:38.086Z,5.70
2018-04-27T01:26:11.306Z,5.70
2018-04-27T01:30:44.648Z,5.50
2018-04-27T01:35:17.925Z,5.60
2018-04-27T01:39:51.220Z,5.80
2018-04-27T01:44:24.516Z,5.90
2018-04-27T01:48:57.745Z,5.80
2018-04-27T01:53:31.035Z,5.80
2018-04-27T01:58:04.272Z,5.80
2018-04-27T02:02:37.530Z,5.70
2018-04-27T02:07:11.511Z,5.60
2018-04-27T02:11:44.766Z,5.60
2018-04-27T02:16:18.759Z,5.00
2018-04-27T02:20:52.804Z,4.90
2018-04-27T02:25:26.857Z,4.90
2018-04-27T02:30:00.027Z,4.80
2018-04-27T02:34:33.258Z,4.70
2018-04-27T02:39:07.278Z,4.90
2018-04-27T02:43:41.223Z,4.90
2018-04-27T02:48:15.239Z,4.90
2018-04-27T02:52:49.186Z,5.00
2018-04-27T02:57:22.353Z,4.90
2018-04-27T03:01:55.536Z,4.70
2018-04-27T03:06:28.718Z,4.50
2018-04-27T03:11:01.901Z,4.40
2018-04-27T03:15:35.258Z,4.40
2018-04-27T03:20:08.410Z,4.30
2018-04-27T03:24:42.425Z,4.40
2018-04-27T03:29:16.380Z,4.30
2018-04-27T03:33:49.534Z,4.20
2018-04-27T03:38:23.079Z,4.20
2018-04-27T03:42:57.393Z,4.00
2018-04-27T03:47:30.569Z,3.90
2018-04-27T03:52:03.826Z,4.20
2018-04-27T05:36:31.174Z,4.40
2018-04-27T05:41:04.334Z,4.60
2018-04-27T05:45:37.569Z,5.00
2018-04-27T05:50:10.770Z,5.30
2018-04-27T05:54:43.929Z,5.60
2018-04-27T05:59:17.118Z,5.70
2018-04-27T06:04:02.271Z,5.80
2018-04-27T06:08:35.450Z,5.80
2018-04-27T06:13:09.398Z,6.00
2018-04-27T06:17:42.591Z,5.90
2018-04-27T06:22:15.769Z,6.10
2018-04-27T06:26:49.010Z,6.30
2018-04-27T06:31:22.206Z,6.70
2018-04-27T06:35:55.397Z,7.10
2018-04-27T06:40:29.367Z,8.10
2018-04-27T06:45:02.529Z,8.00
2018-04-27T06:49:36.483Z,8.70
2018-04-27T06:54:09.667Z,8.70
2018-04-27T06:58:43.623Z,9.60
2018-04-27T07:03:16.835Z,9.50
2018-04-27T07:07:50.023Z,10.10
2018-04-27T07:12:23.245Z,10.70
2018-04-27T07:16:56.451Z,11.30
2018-04-27T07:21:29.639Z,11.60
2018-04-27T07:26:02.823Z,12.00
2018-04-27T07:30:36.790Z,12.50
2018-04-27T07:35:09.950Z,12.40
2018-04-27T07:39:43.221Z,12.60
2018-04-27T07:44:16.412Z,12.70
2018-04-27T07:48:49.637Z,13.30
2018-04-27T07:53:22.842Z,14.00
2018-04-27T07:57:56.063Z,13.60
2018-04-27T08:02:29.270Z,14.30
2018-04-27T08:07:02.799Z,15.30
2018-04-27T08:11:36.008Z,16.30
2018-04-27T08:16:09.943Z,17.60
2018-04-27T08:20:43.885Z,18.10
2018-04-27T08:25:17.071Z,18.00
2018-04-27T08:29:51.034Z,18.00
2018-04-27T08:34:24.209Z,17.90
2018-04-27T08:38:57.406Z,18.40
2018-04-27T08:43:31.410Z,18.50
2018-04-27T08:48:05.383Z,19.70
2018-04-27T08:52:38.570Z,19.60
2018-04-27T08:57:12.552Z,18.70
2018-04-27T09:01:45.828Z,18.60
2018-04-27T09:06:19.117Z,19.80
2018-04-27T09:10:52.265Z,20.30
2018-04-27T09:15:25.482Z,20.80
2018-04-27T09:19:58.689Z,20.60
2018-04-27T09:24:31.886Z,20.90
2018-04-27T09:29:05.070Z,21.20
2018-04-27T09:33:38.260Z,21.40
2018-04-27T09:38:11.436Z,21.10
2018-04-27T09:42:44.755Z,21.30
2018-04-27T09:47:18.738Z,21.30
2018-04-27T09:51:51.906Z,21.30
2018-04-27T09:56:25.414Z,21.90
2018-04-27T10:00:59.646Z,21.30
2018-04-27T10:05:32.838Z,21.20
2018-04-27T10:10:06.846Z,22.60
2018-04-27T10:14:41.559Z,23.50
2018-04-27T10:19:14.842Z,23.50
2018-04-27T10:23:48.034Z,22.80
2018-04-27T10:28:21.252Z,23.60
2018-04-27T10:32:54.474Z,23.30
2018-04-27T10:37:27.633Z,22.50
2018-04-27T10:42:01.638Z,21.90
2018-04-27T10:46:34.827Z,21.80
2018-04-27T10:51:08.036Z,21.90
2018-04-27T10:55:41.251Z,23.70
2018-04-27T11:00:14.418Z,24.40
2018-04-27T11:04:47.605Z,24.30
2018-04-27T11:09:20.834Z,24.20
2018-04-27T11:13:54.481Z,23.00
2018-04-27T11:18:27.661Z,23.30
2018-04-27T11:23:00.845Z,24.10
2018-04-27T11:27:34.026Z,23.50
2018-04-27T11:32:07.244Z,24.00
2018-04-27T11:36:41.506Z,24.90
2018-04-27T11:41:14.833Z,24.80
2018-04-27T11:45:48.000Z,24.00
2018-04-27T11:50:22.013Z,23.40
2018-04-27T11:54:56.014Z,23.30
2018-04-27T11:59:29.204Z,23.30
2018-04-27T12:04:02.558Z,23.10
2018-04-27T12:08:36.529Z,24.10
2018-04-27T12:13:09.717Z,24.10
2018-04-27T12:17:42.922Z,25.30
2018-04-27T12:22:16.766Z,25.10
2018-04-27T12:26:49.965Z,24.40
2018-04-27T12:31:23.329Z,24.80
2018-04-27T12:35:56.446Z,24.50
2018-04-27T12:40:30.398Z,24.00
2018-04-27T12:45:03.641Z,23.90
2018-04-27T12:49:36.829Z,23.60
2018-04-27T12:54:09.990Z,24.00
2018-04-27T12:58:43.970Z,23.80
2018-04-27T13:03:17.163Z,23.70
2018-04-27T13:07:50.362Z,23.50
2018-04-27T13:12:23.569Z,23.40
2018-04-27T13:16:56.778Z,23.20
2018-04-27T13:21:29.938Z,22.90
2018-04-27T13:26:03.897Z,22.50
2018-04-27T13:30:37.093Z,22.40
2018-04-27T13:35:10.287Z,22.30
2018-04-27T13:39:44.226Z,21.80
2018-04-27T13:44:17.414Z,21.80
2018-04-27T13:48:51.365Z,21.90
2018-04-27T13:53:24.565Z,21.80
2018-04-27T13:57:57.774Z,22.40
2018-04-27T14:02:30.966Z,22.90
2018-04-27T14:07:04.931Z,23.10
2018-04-27T14:11:38.142Z,23.10
2018-04-27T14:16:11.329Z,22.80
2018-04-27T14:20:44.514Z,22.90
2018-04-27T14:25:17.730Z,22.80
2018-04-27T14:29:50.982Z,22.60
2018-04-27T14:34:24.219Z,22.70
2018-04-27T14:38:58.182Z,22.60
2018-04-27T14:43:31.351Z,22.60
2018-04-27T14:48:05.319Z,22.50
2018-04-27T14:52:38.506Z,22.50
2018-04-27T14:57:11.671Z,22.70
2018-04-27T15:01:46.378Z,22.50
2018-04-27T15:06:19.570Z,22.50
2018-04-27T15:10:52.731Z,22.40
2018-04-27T15:15:25.918Z,22.70
2018-04-27T15:19:59.075Z,22.60
2018-04-27T15:24:32.275Z,22.50
2018-04-27T15:29:05.788Z,22.40
2018-04-27T15:33:38.946Z,22.30
2018-04-27T15:38:12.154Z,22.20
2018-04-27T15:42:45.361Z,22.00
2018-04-27T15:47:18.555Z,21.90
2018-04-27T15:51:52.669Z,22.40
2018-04-27T15:56:25.915Z,22.50
2018-04-27T16:00:59.926Z,22.30
2018-04-27T16:05:33.102Z,22.20
2018-04-27T16:10:06.541Z,22.30
2018-04-27T16:14:39.789Z,22.20
2018-04-27T16:19:12.982Z,22.30
2018-04-27T16:23:46.192Z,22.20
2018-04-27T16:28:20.141Z,22.20
2018-04-27T16:32:53.335Z,22.20
2018-04-27T16:37:27.289Z,22.60
2018-04-27T16:42:00.541Z,22.50
2018-04-27T16:46:33.729Z,22.80
2018-04-27T16:51:06.977Z,22.80
2018-04-27T16:55:40.977Z,22.50
2018-04-27T17:00:14.934Z,22.50
2018-04-27T17:04:48.912Z,22.40
2018-04-27T17:09:22.091Z,22.30
2018-04-27T17:13:55.300Z,22.30
2018-04-27T17:18:28.787Z,22.30
2018-04-27T17:23:02.743Z,22.00
2018-04-27T17:27:35.930Z,21.90
2018-04-27T17:32:09.155Z,21.60
2018-04-27T17:36:42.360Z,21.60
2018-04-27T17:41:15.569Z,21.40
2018-04-27T17:45:48.770Z,21.20
2018-04-27T17:50:21.996Z,21.00
2018-04-27T17:54:55.966Z,20.30
2018-04-27T17:59:30.003Z,20.20
2018-04-27T18:04:03.134Z,20.10
2018-04-27T18:08:36.354Z,19.60
2018-04-27T18:13:09.830Z,19.20
2018-04-27T18:17:44.050Z,18.70
2018-04-27T18:22:17.974Z,18.60
2018-04-27T18:26:51.942Z,18.60
2018-04-27T18:31:25.145Z,18.50
2018-04-27T18:35:58.345Z,18.60
2018-04-27T18:40:31.520Z,18.50
2018-04-27T18:45:05.478Z,18.10
2018-04-27T18:49:38.648Z,18.00
2018-04-27T18:54:12.610Z,17.70
2018-04-27T18:58:56.982Z,17.60
2018-04-27T19:03:31.350Z,17.60
2018-04-27T19:08:05.601Z,17.40
2018-04-27T19:12:39.578Z,17.10
2018-04-27T19:17:14.606Z,17.10
2018-04-27T19:21:47.786Z,16.70
2018-04-27T19:26:21.751Z,16.30
2018-04-27T19:30:55.108Z,16.20
2018-04-27T19:35:28.311Z,16.00
2018-04-27T19:40:01.741Z,15.80
2018-04-27T19:44:35.706Z,16.00
2018-04-27T19:49:08.942Z,15.90
2018-04-27T19:53:42.950Z,16.20
2018-04-27T19:58:16.197Z,16.20
2018-04-27T20:02:50.153Z,15.70
2018-04-27T20:07:23.362Z,15.60
2018-04-27T20:11:56.679Z,15.30
2018-04-27T20:16:37.219Z,14.70
2018-04-27T20:21:11.181Z,14.60
2018-04-27T20:25:44.354Z,14.50
2018-04-27T20:30:18.399Z,14.30
2018-04-27T20:34:51.605Z,14.20
2018-04-27T20:39:24.817Z,14.10
2018-04-27T20:43:58.022Z,13.90
2018-04-27T20:48:31.305Z,13.80
2018-04-27T20:53:04.552Z,13.50
2018-04-27T20:57:37.748Z,13.30
2018-04-27T21:02:11.107Z,13.20
2018-04-27T21:06:44.775Z,13.10
2018-04-27T21:11:17.989Z,13.00
2018-04-27T21:15:51.158Z,13.00
2018-04-27T21:20:25.855Z,12.70
2018-04-27T21:24:59.054Z,12.60
2018-04-27T21:29:36.983Z,12.60
2018-04-27T21:34:10.182Z,12.40
2018-04-27T21:38:46.236Z,12.40
2018-04-27T21:43:19.431Z,12.20
2018-04-27T21:47:52.643Z,12.00
2018-04-27T21:52:34.690Z,11.80
2018-04-27T21:57:28.550Z,11.70
2018-04-27T22:02:01.767Z,11.60
2018-04-27T22:06:34.972Z,11.60
2018-04-27T22:16:27.849Z,11.50
2018-04-27T22:21:01.834Z,11.10
2018-04-27T22:25:38.006Z,11.00
2018-04-27T22:30:22.920Z,10.90
2018-04-27T22:34:58.796Z,10.90
2018-04-27T22:39:38.754Z,10.90
2018-04-27T22:44:12.698Z,10.70
2018-04-27T22:49:04.479Z,10.60
2018-04-27T22:58:57.067Z,10.60
2018-04-27T23:03:30.269Z,10.50
2018-04-27T23:08:04.233Z,10.50
2018-04-27T23:12:41.834Z,10.40
2018-04-27T23:17:15.186Z,10.30
2018-04-27T23:21:55.041Z,10.30
2018-04-27T23:26:28.997Z,10.20
2018-04-27T23:31:02.171Z,10.10
2018-04-27T23:35:52.450Z,10.00
2018-04-27T23:40:25.658Z,10.00
2018-04-27T23:44:58.857Z,10.10
2018-04-27T23:49:32.066Z,9.90
2018-04-27T23:54:06.065Z,9.80
2018-04-27T23:58:41.222Z,9.60
